sensor_id;sensor_type;location;lat;lon;timestamp;P1;durP1;ratioP1;P2;durP2;ratioP2
21810;SDS011;11067;48.788;9.208;2023-06-04T00:01:40;10.40;;;5.33;;
21810;SDS011;11067;48.788;9.208;2023-06-04T00:04:05;8.80;;;5.33;;
21810;SDS011;11067;48.788;9.208;2023-06-04T00:06:31;7.43;;;4.73;;
21810;SDS011;11067;48.788;9.208;2023-06-04T00:08:56;6.83;;;4.80;;
21810;SDS011;11067;48.788;9.208;2023-06-04T00:11:22;8.90;;;5.10;;
21810;SDS011;11067;48.788;9.208;2023-06-04T00:13:47;8.83;;;5.23;;
21810;SDS011;11067;48.788;9.208;2023-06-04T00:16:13;6.68;;;5.00;;
21810;SDS011;11067;48.788;9.208;2023-06-04T00:18:39;7.57;;;5.00;;
21810;SDS011;11067;48.788;9.208;2023-06-04T00:21:04;8.43;;;4.80;;
21810;SDS011;11067;48.788;9.208;2023-06-04T00:23:30;8.38;;;5.07;;
21810;SDS011;11067;48.788;9.208;2023-06-04T00:25:55;8.33;;;5.27;;
21810;SDS011;11067;48.788;9.208;2023-06-04T00:28:21;7.90;;;5.00;;
21810;SDS011;11067;48.788;9.208;2023-06-04T00:30:46;9.27;;;4.80;;
21810;SDS011;11067;48.788;9.208;2023-06-04T00:33:12;7.60;;;4.70;;
21810;SDS011;11067;48.788;9.208;2023-06-04T00:35:37;7.03;;;4.80;;
21810;SDS011;11067;48.788;9.208;2023-06-04T00:38:03;8.70;;;4.90;;
21810;SDS011;11067;48.788;9.208;2023-06-04T00:40:28;8.20;;;4.50;;
21810;SDS011;11067;48.788;9.208;2023-06-04T00:42:54;9.83;;;5.23;;
21810;SDS011;11067;48.788;9.208;2023-06-04T00:45:20;10.27;;;5.60;;
21810;SDS011;11067;48.788;9.208;2023-06-04T00:47:46;8.40;;;4.73;;
21810;SDS011;11067;48.788;9.208;2023-06-04T00:50:12;9.25;;;5.47;;
21810;SDS011;11067;48.788;9.208;2023-06-04T00:52:38;8.60;;;5.15;;
21810;SDS011;11067;48.788;9.208;2023-06-04T00:55:04;10.07;;;5.32;;
21810;SDS011;11067;48.788;9.208;2023-06-04T00:57:30;7.88;;;4.95;;
21810;SDS011;11067;48.788;9.208;2023-06-04T00:59:55;9.00;;;5.03;;
21810;SDS011;11067;48.788;9.208;2023-06-04T01:02:21;8.30;;;4.93;;
21810;SDS011;11067;48.788;9.208;2023-06-04T01:07:20;7.90;;;4.97;;
21810;SDS011;11067;48.788;9.208;2023-06-04T01:09:47;9.77;;;4.80;;
21810;SDS011;11067;48.788;9.208;2023-06-04T01:12:14;9.15;;;5.15;;
21810;SDS011;11067;48.788;9.208;2023-06-04T01:14:40;7.03;;;4.60;;
21810;SDS011;11067;48.788;9.208;2023-06-04T01:22:38;7.43;;;4.95;;
21810;SDS011;11067;48.788;9.208;2023-06-04T01:25:14;7.47;;;4.68;;
21810;SDS011;11067;48.788;9.208;2023-06-04T01:27:48;8.00;;;5.17;;
21810;SDS011;11067;48.788;9.208;2023-06-04T01:30:17;7.93;;;5.23;;
21810;SDS011;11067;48.788;9.208;2023-06-04T01:32:50;8.15;;;5.00;;
21810;SDS011;11067;48.788;9.208;2023-06-04T01:35:20;11.65;;;4.90;;
21810;SDS011;11067;48.788;9.208;2023-06-04T01:37:46;9.30;;;5.03;;
21810;SDS011;11067;48.788;9.208;2023-06-04T01:40:12;8.30;;;4.93;;
21810;SDS011;11067;48.788;9.208;2023-06-04T01:42:38;7.70;;;4.82;;
21810;SDS011;11067;48.788;9.208;2023-06-04T01:45:04;7.47;;;5.23;;
21810;SDS011;11067;48.788;9.208;2023-06-04T01:47:30;6.68;;;4.63;;
21810;SDS011;11067;48.788;9.208;2023-06-04T01:49:55;14.17;;;5.60;;
21810;SDS011;11067;48.788;9.208;2023-06-04T01:52:21;8.82;;;5.00;;
21810;SDS011;11067;48.788;9.208;2023-06-04T01:54:47;8.88;;;5.70;;
21810;SDS011;11067;48.788;9.208;2023-06-04T01:57:17;9.32;;;4.70;;
21810;SDS011;11067;48.788;9.208;2023-06-04T01:59:45;10.90;;;5.05;;
21810;SDS011;11067;48.788;9.208;2023-06-04T02:02:11;8.82;;;5.00;;
21810;SDS011;11067;48.788;9.208;2023-06-04T02:04:37;9.60;;;5.00;;
21810;SDS011;11067;48.788;9.208;2023-06-04T02:07:06;7.53;;;4.70;;
21810;SDS011;11067;48.788;9.208;2023-06-04T02:09:33;6.63;;;4.47;;
21810;SDS011;11067;48.788;9.208;2023-06-04T02:12:00;7.38;;;4.65;;
21810;SDS011;11067;48.788;9.208;2023-06-04T02:14:25;6.10;;;4.45;;
21810;SDS011;11067;48.788;9.208;2023-06-04T02:16:51;7.40;;;4.53;;
21810;SDS011;11067;48.788;9.208;2023-06-04T02:19:22;7.32;;;4.53;;
21810;SDS011;11067;48.788;9.208;2023-06-04T02:21:48;7.90;;;4.38;;
21810;SDS011;11067;48.788;9.208;2023-06-04T02:24:14;8.40;;;4.10;;
21810;SDS011;11067;48.788;9.208;2023-06-04T02:26:39;7.82;;;4.45;;
21810;SDS011;11067;48.788;9.208;2023-06-04T02:29:05;11.27;;;4.85;;
21810;SDS011;11067;48.788;9.208;2023-06-04T02:31:30;7.13;;;3.90;;
21810;SDS011;11067;48.788;9.208;2023-06-04T02:33:56;6.38;;;4.30;;
21810;SDS011;11067;48.788;9.208;2023-06-04T02:36:21;8.97;;;4.27;;
21810;SDS011;11067;48.788;9.208;2023-06-04T02:38:47;5.70;;;3.95;;
21810;SDS011;11067;48.788;9.208;2023-06-04T02:41:12;5.80;;;3.83;;
21810;SDS011;11067;48.788;9.208;2023-06-04T02:43:38;5.27;;;3.63;;
21810;SDS011;11067;48.788;9.208;2023-06-04T02:46:03;6.43;;;4.00;;
21810;SDS011;11067;48.788;9.208;2023-06-04T02:48:31;7.05;;;3.63;;
21810;SDS011;11067;48.788;9.208;2023-06-04T02:50:56;7.50;;;3.95;;
21810;SDS011;11067;48.788;9.208;2023-06-04T02:53:22;5.43;;;3.30;;
21810;SDS011;11067;48.788;9.208;2023-06-04T02:55:48;4.05;;;2.97;;
21810;SDS011;11067;48.788;9.208;2023-06-04T02:58:15;6.43;;;3.63;;
21810;SDS011;11067;48.788;9.208;2023-06-04T03:00:41;6.65;;;4.40;;
21810;SDS011;11067;48.788;9.208;2023-06-04T03:03:07;4.40;;;3.50;;
21810;SDS011;11067;48.788;9.208;2023-06-04T03:05:32;6.60;;;3.60;;
21810;SDS011;11067;48.788;9.208;2023-06-04T03:07:58;5.05;;;3.20;;
21810;SDS011;11067;48.788;9.208;2023-06-04T03:10:25;5.55;;;3.42;;
21810;SDS011;11067;48.788;9.208;2023-06-04T03:12:51;6.80;;;3.80;;
21810;SDS011;11067;48.788;9.208;2023-06-04T03:15:16;6.47;;;3.20;;
21810;SDS011;11067;48.788;9.208;2023-06-04T03:17:42;7.05;;;3.42;;
21810;SDS011;11067;48.788;9.208;2023-06-04T03:20:07;5.53;;;3.30;;
21810;SDS011;11067;48.788;9.208;2023-06-04T03:22:34;5.57;;;3.38;;
21810;SDS011;11067;48.788;9.208;2023-06-04T03:25:00;5.68;;;3.38;;
21810;SDS011;11067;48.788;9.208;2023-06-04T03:27:27;5.32;;;3.15;;
21810;SDS011;11067;48.788;9.208;2023-06-04T03:29:52;5.05;;;3.63;;
21810;SDS011;11067;48.788;9.208;2023-06-04T03:32:18;4.97;;;3.13;;
21810;SDS011;11067;48.788;9.208;2023-06-04T03:34:43;6.57;;;3.93;;
21810;SDS011;11067;48.788;9.208;2023-06-04T03:37:09;8.50;;;3.33;;
21810;SDS011;11067;48.788;9.208;2023-06-04T03:39:35;5.28;;;3.22;;
21810;SDS011;11067;48.788;9.208;2023-06-04T03:42:00;6.07;;;3.00;;
21810;SDS011;11067;48.788;9.208;2023-06-04T03:44:26;6.20;;;3.15;;
21810;SDS011;11067;48.788;9.208;2023-06-04T03:46:51;4.32;;;3.17;;
21810;SDS011;11067;48.788;9.208;2023-06-04T03:49:17;5.67;;;2.83;;
21810;SDS011;11067;48.788;9.208;2023-06-04T03:51:43;4.53;;;2.80;;
21810;SDS011;11067;48.788;9.208;2023-06-04T03:54:08;4.28;;;3.47;;
21810;SDS011;11067;48.788;9.208;2023-06-04T03:56:35;8.95;;;3.60;;
21810;SDS011;11067;48.788;9.208;2023-06-04T03:59:00;6.30;;;2.93;;
21810;SDS011;11067;48.788;9.208;2023-06-04T04:01:26;5.43;;;2.63;;
21810;SDS011;11067;48.788;9.208;2023-06-04T04:03:52;4.40;;;2.87;;
21810;SDS011;11067;48.788;9.208;2023-06-04T04:06:18;4.00;;;3.08;;
21810;SDS011;11067;48.788;9.208;2023-06-04T04:08:44;4.00;;;2.72;;
21810;SDS011;11067;48.788;9.208;2023-06-04T04:11:10;4.18;;;2.75;;
21810;SDS011;11067;48.788;9.208;2023-06-04T04:13:36;3.88;;;2.78;;
21810;SDS011;11067;48.788;9.208;2023-06-04T04:16:01;5.65;;;2.58;;
21810;SDS011;11067;48.788;9.208;2023-06-04T04:18:27;5.03;;;2.60;;
21810;SDS011;11067;48.788;9.208;2023-06-04T04:20:52;5.37;;;2.80;;
21810;SDS011;11067;48.788;9.208;2023-06-04T04:23:18;4.70;;;2.80;;
21810;SDS011;11067;48.788;9.208;2023-06-04T04:25:43;5.40;;;2.50;;
21810;SDS011;11067;48.788;9.208;2023-06-04T04:28:09;5.70;;;2.80;;
21810;SDS011;11067;48.788;9.208;2023-06-04T04:30:35;4.77;;;2.77;;
21810;SDS011;11067;48.788;9.208;2023-06-04T04:33:03;6.30;;;2.67;;
21810;SDS011;11067;48.788;9.208;2023-06-04T04:35:32;4.40;;;2.55;;
21810;SDS011;11067;48.788;9.208;2023-06-04T04:38:00;6.73;;;2.90;;
21810;SDS011;11067;48.788;9.208;2023-06-04T04:40:29;3.92;;;2.75;;
21810;SDS011;11067;48.788;9.208;2023-06-04T04:42:55;3.10;;;2.40;;
21810;SDS011;11067;48.788;9.208;2023-06-04T04:45:21;3.33;;;2.55;;
21810;SDS011;11067;48.788;9.208;2023-06-04T04:47:47;7.23;;;2.80;;
21810;SDS011;11067;48.788;9.208;2023-06-04T04:50:13;5.35;;;2.45;;
21810;SDS011;11067;48.788;9.208;2023-06-04T04:52:38;3.80;;;2.40;;
21810;SDS011;11067;48.788;9.208;2023-06-04T04:55:04;3.35;;;2.45;;
21810;SDS011;11067;48.788;9.208;2023-06-04T04:57:30;3.75;;;2.30;;
21810;SDS011;11067;48.788;9.208;2023-06-04T04:59:56;4.03;;;2.50;;
21810;SDS011;11067;48.788;9.208;2023-06-04T05:02:21;3.77;;;2.67;;
21810;SDS011;11067;48.788;9.208;2023-06-04T05:04:47;6.23;;;2.50;;
21810;SDS011;11067;48.788;9.208;2023-06-04T05:07:12;3.45;;;2.42;;
21810;SDS011;11067;48.788;9.208;2023-06-04T05:09:38;6.23;;;2.60;;
21810;SDS011;11067;48.788;9.208;2023-06-04T05:12:03;6.25;;;2.70;;
21810;SDS011;11067;48.788;9.208;2023-06-04T05:14:29;4.73;;;2.70;;
21810;SDS011;11067;48.788;9.208;2023-06-04T05:16:54;4.93;;;2.45;;
21810;SDS011;11067;48.788;9.208;2023-06-04T05:19:23;2.83;;;2.10;;
21810;SDS011;11067;48.788;9.208;2023-06-04T05:21:49;2.90;;;2.30;;
21810;SDS011;11067;48.788;9.208;2023-06-04T05:24:15;4.40;;;2.60;;
21810;SDS011;11067;48.788;9.208;2023-06-04T05:26:41;2.83;;;2.20;;
21810;SDS011;11067;48.788;9.208;2023-06-04T05:29:08;3.00;;;2.30;;
21810;SDS011;11067;48.788;9.208;2023-06-04T05:31:33;3.38;;;2.28;;
21810;SDS011;11067;48.788;9.208;2023-06-04T05:33:59;5.57;;;2.15;;
21810;SDS011;11067;48.788;9.208;2023-06-04T05:36:29;3.80;;;2.03;;
21810;SDS011;11067;48.788;9.208;2023-06-04T05:38:56;6.38;;;2.20;;
21810;SDS011;11067;48.788;9.208;2023-06-04T05:41:25;2.95;;;2.30;;
21810;SDS011;11067;48.788;9.208;2023-06-04T05:43:51;3.10;;;2.40;;
21810;SDS011;11067;48.788;9.208;2023-06-04T05:46:17;4.17;;;2.47;;
21810;SDS011;11067;48.788;9.208;2023-06-04T05:48:42;4.43;;;2.00;;
21810;SDS011;11067;48.788;9.208;2023-06-04T05:51:08;3.45;;;2.00;;
21810;SDS011;11067;48.788;9.208;2023-06-04T05:53:33;3.60;;;2.17;;
21810;SDS011;11067;48.788;9.208;2023-06-04T05:55:59;5.63;;;2.40;;
21810;SDS011;11067;48.788;9.208;2023-06-04T05:58:25;2.73;;;2.10;;
21810;SDS011;11067;48.788;9.208;2023-06-04T06:00:50;3.25;;;2.00;;
21810;SDS011;11067;48.788;9.208;2023-06-04T06:03:16;2.60;;;1.93;;
21810;SDS011;11067;48.788;9.208;2023-06-04T06:05:42;3.40;;;2.22;;
21810;SDS011;11067;48.788;9.208;2023-06-04T06:08:08;4.50;;;3.00;;
21810;SDS011;11067;48.788;9.208;2023-06-04T06:10:33;3.33;;;1.90;;
21810;SDS011;11067;48.788;9.208;2023-06-04T06:12:59;3.27;;;2.03;;
21810;SDS011;11067;48.788;9.208;2023-06-04T06:15:27;2.70;;;2.08;;
21810;SDS011;11067;48.788;9.208;2023-06-04T06:17:53;3.30;;;1.90;;
21810;SDS011;11067;48.788;9.208;2023-06-04T06:20:19;4.00;;;1.60;;
21810;SDS011;11067;48.788;9.208;2023-06-04T06:22:47;3.60;;;1.60;;
21810;SDS011;11067;48.788;9.208;2023-06-04T06:25:12;2.35;;;1.67;;
21810;SDS011;11067;48.788;9.208;2023-06-04T06:27:40;7.03;;;1.87;;
21810;SDS011;11067;48.788;9.208;2023-06-04T06:30:06;4.57;;;2.27;;
21810;SDS011;11067;48.788;9.208;2023-06-04T06:32:33;2.35;;;1.83;;
21810;SDS011;11067;48.788;9.208;2023-06-04T06:34:58;2.43;;;2.00;;
21810;SDS011;11067;48.788;9.208;2023-06-04T06:37:24;5.53;;;2.00;;
21810;SDS011;11067;48.788;9.208;2023-06-04T06:39:50;3.72;;;1.63;;
21810;SDS011;11067;48.788;9.208;2023-06-04T06:42:18;2.37;;;1.80;;
21810;SDS011;11067;48.788;9.208;2023-06-04T06:44:44;3.70;;;2.10;;
21810;SDS011;11067;48.788;9.208;2023-06-04T06:47:10;5.73;;;1.90;;
21810;SDS011;11067;48.788;9.208;2023-06-04T06:49:38;2.40;;;1.90;;
21810;SDS011;11067;48.788;9.208;2023-06-04T06:52:05;5.18;;;1.80;;
21810;SDS011;11067;48.788;9.208;2023-06-04T06:54:30;4.10;;;1.70;;
21810;SDS011;11067;48.788;9.208;2023-06-04T06:56:56;4.80;;;1.97;;
21810;SDS011;11067;48.788;9.208;2023-06-04T06:59:22;3.95;;;1.80;;
21810;SDS011;11067;48.788;9.208;2023-06-04T07:01:48;3.40;;;1.90;;
21810;SDS011;11067;48.788;9.208;2023-06-04T07:04:14;3.67;;;1.80;;
21810;SDS011;11067;48.788;9.208;2023-06-04T07:06:40;4.50;;;1.80;;
21810;SDS011;11067;48.788;9.208;2023-06-04T07:09:06;3.63;;;1.93;;
21810;SDS011;11067;48.788;9.208;2023-06-04T07:11:32;3.83;;;1.63;;
21810;SDS011;11067;48.788;9.208;2023-06-04T07:13:58;2.30;;;1.87;;
21810;SDS011;11067;48.788;9.208;2023-06-04T07:16:23;4.30;;;2.10;;
21810;SDS011;11067;48.788;9.208;2023-06-04T07:18:49;2.53;;;1.80;;
21810;SDS011;11067;48.788;9.208;2023-06-04T07:21:15;3.47;;;1.88;;
21810;SDS011;11067;48.788;9.208;2023-06-04T07:23:41;3.80;;;1.90;;
21810;SDS011;11067;48.788;9.208;2023-06-04T07:26:06;4.40;;;2.20;;
21810;SDS011;11067;48.788;9.208;2023-06-04T07:28:32;2.33;;;1.70;;
21810;SDS011;11067;48.788;9.208;2023-06-04T07:30:58;3.67;;;1.90;;
21810;SDS011;11067;48.788;9.208;2023-06-04T07:33:24;5.20;;;2.15;;
21810;SDS011;11067;48.788;9.208;2023-06-04T07:35:50;3.15;;;1.90;;
21810;SDS011;11067;48.788;9.208;2023-06-04T07:38:15;3.10;;;1.95;;
21810;SDS011;11067;48.788;9.208;2023-06-04T07:40:42;4.85;;;1.98;;
21810;SDS011;11067;48.788;9.208;2023-06-04T07:43:08;4.67;;;2.00;;
21810;SDS011;11067;48.788;9.208;2023-06-04T07:45:33;3.07;;;2.00;;
21810;SDS011;11067;48.788;9.208;2023-06-04T07:47:59;2.70;;;2.00;;
21810;SDS011;11067;48.788;9.208;2023-06-04T07:50:24;4.67;;;2.00;;
21810;SDS011;11067;48.788;9.208;2023-06-04T07:52:50;4.00;;;2.10;;
21810;SDS011;11067;48.788;9.208;2023-06-04T07:55:16;3.00;;;2.22;;
21810;SDS011;11067;48.788;9.208;2023-06-04T07:57:42;3.17;;;2.10;;
21810;SDS011;11067;48.788;9.208;2023-06-04T08:00:07;4.93;;;2.27;;
21810;SDS011;11067;48.788;9.208;2023-06-04T08:02:34;4.07;;;2.00;;
21810;SDS011;11067;48.788;9.208;2023-06-04T08:05:00;2.85;;;2.20;;
21810;SDS011;11067;48.788;9.208;2023-06-04T08:07:27;3.53;;;2.13;;
21810;SDS011;11067;48.788;9.208;2023-06-04T08:09:52;2.87;;;1.93;;
21810;SDS011;11067;48.788;9.208;2023-06-04T08:12:18;3.30;;;2.30;;
21810;SDS011;11067;48.788;9.208;2023-06-04T08:14:44;2.63;;;2.07;;
21810;SDS011;11067;48.788;9.208;2023-06-04T08:17:10;2.63;;;1.90;;
21810;SDS011;11067;48.788;9.208;2023-06-04T08:19:35;4.30;;;2.60;;
21810;SDS011;11067;48.788;9.208;2023-06-04T08:22:01;7.83;;;2.20;;
21810;SDS011;11067;48.788;9.208;2023-06-04T08:24:27;5.13;;;2.03;;
21810;SDS011;11067;48.788;9.208;2023-06-04T08:26:52;5.67;;;2.30;;
21810;SDS011;11067;48.788;9.208;2023-06-04T08:29:18;5.63;;;2.33;;
21810;SDS011;11067;48.788;9.208;2023-06-04T08:31:44;3.38;;;2.40;;
21810;SDS011;11067;48.788;9.208;2023-06-04T08:34:09;4.33;;;2.13;;
21810;SDS011;11067;48.788;9.208;2023-06-04T08:36:35;2.92;;;2.40;;
21810;SDS011;11067;48.788;9.208;2023-06-04T08:39:01;4.13;;;2.30;;
21810;SDS011;11067;48.788;9.208;2023-06-04T08:44:22;5.30;;;2.45;;
21810;SDS011;11067;48.788;9.208;2023-06-04T08:46:51;4.13;;;2.20;;
21810;SDS011;11067;48.788;9.208;2023-06-04T08:49:19;3.03;;;2.15;;
21810;SDS011;11067;48.788;9.208;2023-06-04T08:51:47;5.67;;;2.10;;
21810;SDS011;11067;48.788;9.208;2023-06-04T08:54:13;3.78;;;2.45;;
21810;SDS011;11067;48.788;9.208;2023-06-04T08:56:39;3.93;;;2.23;;
21810;SDS011;11067;48.788;9.208;2023-06-04T08:59:05;3.30;;;1.93;;
21810;SDS011;11067;48.788;9.208;2023-06-04T09:01:32;2.97;;;1.87;;
21810;SDS011;11067;48.788;9.208;2023-06-04T09:03:59;3.97;;;2.00;;
21810;SDS011;11067;48.788;9.208;2023-06-04T09:06:28;3.40;;;2.20;;
21810;SDS011;11067;48.788;9.208;2023-06-04T09:08:58;6.18;;;2.20;;
21810;SDS011;11067;48.788;9.208;2023-06-04T09:11:26;3.88;;;2.45;;
21810;SDS011;11067;48.788;9.208;2023-06-04T09:13:59;4.22;;;2.20;;
21810;SDS011;11067;48.788;9.208;2023-06-04T09:16:26;2.95;;;2.10;;
21810;SDS011;11067;48.788;9.208;2023-06-04T09:18:51;4.37;;;2.10;;
21810;SDS011;11067;48.788;9.208;2023-06-04T09:21:18;4.73;;;2.47;;
21810;SDS011;11067;48.788;9.208;2023-06-04T09:23:45;3.97;;;2.20;;
21810;SDS011;11067;48.788;9.208;2023-06-04T09:26:12;3.33;;;2.22;;
21810;SDS011;11067;48.788;9.208;2023-06-04T09:28:42;2.50;;;2.20;;
21810;SDS011;11067;48.788;9.208;2023-06-04T09:31:17;6.70;;;2.67;;
21810;SDS011;11067;48.788;9.208;2023-06-04T09:33:43;2.85;;;2.13;;
21810;SDS011;11067;48.788;9.208;2023-06-04T09:36:13;6.40;;;2.20;;
21810;SDS011;11067;48.788;9.208;2023-06-04T09:38:40;3.88;;;2.22;;
21810;SDS011;11067;48.788;9.208;2023-06-04T09:41:16;3.15;;;1.95;;
21810;SDS011;11067;48.788;9.208;2023-06-04T09:43:44;6.38;;;2.30;;
21810;SDS011;11067;48.788;9.208;2023-06-04T09:46:14;3.55;;;2.30;;
21810;SDS011;11067;48.788;9.208;2023-06-04T09:48:41;3.28;;;2.55;;
21810;SDS011;11067;48.788;9.208;2023-06-04T09:51:15;3.37;;;2.40;;
21810;SDS011;11067;48.788;9.208;2023-06-04T09:53:43;4.17;;;2.70;;
21810;SDS011;11067;48.788;9.208;2023-06-04T09:56:18;4.05;;;2.40;;
21810;SDS011;11067;48.788;9.208;2023-06-04T09:58:44;4.60;;;2.27;;
21810;SDS011;11067;48.788;9.208;2023-06-04T10:01:11;5.10;;;2.72;;
21810;SDS011;11067;48.788;9.208;2023-06-04T10:03:37;4.25;;;2.40;;
21810;SDS011;11067;48.788;9.208;2023-06-04T10:06:05;7.40;;;2.70;;
21810;SDS011;11067;48.788;9.208;2023-06-04T10:08:31;6.03;;;2.88;;
21810;SDS011;11067;48.788;9.208;2023-06-04T10:10:59;3.97;;;2.80;;
21810;SDS011;11067;48.788;9.208;2023-06-04T10:13:31;5.07;;;2.50;;
21810;SDS011;11067;48.788;9.208;2023-06-04T10:16:03;4.72;;;2.80;;
21810;SDS011;11067;48.788;9.208;2023-06-04T10:18:30;4.33;;;2.97;;
21810;SDS011;11067;48.788;9.208;2023-06-04T10:20:56;6.00;;;2.67;;
21810;SDS011;11067;48.788;9.208;2023-06-04T10:23:23;5.00;;;2.50;;
21810;SDS011;11067;48.788;9.208;2023-06-04T10:25:49;6.68;;;2.42;;
21810;SDS011;11067;48.788;9.208;2023-06-04T10:28:17;4.68;;;2.60;;
21810;SDS011;11067;48.788;9.208;2023-06-04T10:30:45;4.50;;;2.90;;
21810;SDS011;11067;48.788;9.208;2023-06-04T10:33:10;4.93;;;2.60;;
21810;SDS011;11067;48.788;9.208;2023-06-04T10:35:36;5.35;;;2.63;;
21810;SDS011;11067;48.788;9.208;2023-06-04T10:38:09;3.97;;;2.50;;
21810;SDS011;11067;48.788;9.208;2023-06-04T10:40:36;4.20;;;2.65;;
21810;SDS011;11067;48.788;9.208;2023-06-04T10:43:06;2.88;;;2.40;;
21810;SDS011;11067;48.788;9.208;2023-06-04T10:45:32;5.00;;;2.50;;
21810;SDS011;11067;48.788;9.208;2023-06-04T10:48:01;3.73;;;2.43;;
21810;SDS011;11067;48.788;9.208;2023-06-04T10:50:31;4.70;;;2.40;;
21810;SDS011;11067;48.788;9.208;2023-06-04T10:52:58;5.43;;;2.63;;
21810;SDS011;11067;48.788;9.208;2023-06-04T10:55:27;4.00;;;2.50;;
21810;SDS011;11067;48.788;9.208;2023-06-04T10:57:54;4.90;;;2.67;;
21810;SDS011;11067;48.788;9.208;2023-06-04T11:00:21;3.88;;;2.60;;
21810;SDS011;11067;48.788;9.208;2023-06-04T11:02:56;3.42;;;2.50;;
21810;SDS011;11067;48.788;9.208;2023-06-04T11:05:22;3.17;;;2.42;;
21810;SDS011;11067;48.788;9.208;2023-06-04T11:07:58;3.58;;;2.53;;
21810;SDS011;11067;48.788;9.208;2023-06-04T11:10:29;3.83;;;2.50;;
21810;SDS011;11067;48.788;9.208;2023-06-04T11:13:03;4.05;;;2.75;;
21810;SDS011;11067;48.788;9.208;2023-06-04T11:15:42;4.10;;;2.50;;
21810;SDS011;11067;48.788;9.208;2023-06-04T11:18:16;3.90;;;2.60;;
21810;SDS011;11067;48.788;9.208;2023-06-04T11:20:58;3.15;;;2.50;;
21810;SDS011;11067;48.788;9.208;2023-06-04T11:23:25;5.50;;;2.58;;
21810;SDS011;11067;48.788;9.208;2023-06-04T11:25:52;5.93;;;3.33;;
21810;SDS011;11067;48.788;9.208;2023-06-04T11:28:18;4.75;;;2.67;;
21810;SDS011;11067;48.788;9.208;2023-06-04T11:30:44;4.77;;;2.70;;
21810;SDS011;11067;48.788;9.208;2023-06-04T11:33:45;4.80;;;2.80;;
21810;SDS011;11067;48.788;9.208;2023-06-04T11:38:59;6.23;;;3.00;;
21810;SDS011;11067;48.788;9.208;2023-06-04T11:41:27;3.88;;;2.88;;
21810;SDS011;11067;48.788;9.208;2023-06-04T11:43:56;3.80;;;2.80;;
21810;SDS011;11067;48.788;9.208;2023-06-04T11:46:23;6.70;;;3.20;;
21810;SDS011;11067;48.788;9.208;2023-06-04T11:48:52;6.20;;;3.05;;
21810;SDS011;11067;48.788;9.208;2023-06-04T11:51:19;3.88;;;2.50;;
21810;SDS011;11067;48.788;9.208;2023-06-04T11:53:45;5.03;;;2.58;;
21810;SDS011;11067;48.788;9.208;2023-06-04T11:56:11;8.02;;;2.63;;
21810;SDS011;11067;48.788;9.208;2023-06-04T11:58:37;4.57;;;2.60;;
21810;SDS011;11067;48.788;9.208;2023-06-04T12:01:03;4.72;;;2.60;;
21810;SDS011;11067;48.788;9.208;2023-06-04T12:03:35;3.27;;;2.40;;
21810;SDS011;11067;48.788;9.208;2023-06-04T12:06:12;4.20;;;2.60;;
21810;SDS011;11067;48.788;9.208;2023-06-04T12:08:45;3.30;;;2.60;;
21810;SDS011;11067;48.788;9.208;2023-06-04T12:11:28;4.60;;;2.72;;
21810;SDS011;11067;48.788;9.208;2023-06-04T12:13:56;4.05;;;2.72;;
21810;SDS011;11067;48.788;9.208;2023-06-04T12:16:24;3.65;;;2.70;;
21810;SDS011;11067;48.788;9.208;2023-06-04T12:18:50;5.50;;;3.38;;
21810;SDS011;11067;48.788;9.208;2023-06-04T12:21:17;7.43;;;3.30;;
21810;SDS011;11067;48.788;9.208;2023-06-04T12:23:44;5.27;;;3.10;;
21810;SDS011;11067;48.788;9.208;2023-06-04T12:26:19;4.80;;;2.70;;
21810;SDS011;11067;48.788;9.208;2023-06-04T12:29:00;4.55;;;2.70;;
21810;SDS011;11067;48.788;9.208;2023-06-04T12:31:26;3.97;;;2.85;;
21810;SDS011;11067;48.788;9.208;2023-06-04T12:33:56;5.45;;;2.67;;
21810;SDS011;11067;48.788;9.208;2023-06-04T12:36:25;4.22;;;2.33;;
21810;SDS011;11067;48.788;9.208;2023-06-04T12:38:51;3.90;;;2.58;;
21810;SDS011;11067;48.788;9.208;2023-06-04T12:41:17;5.23;;;2.43;;
21810;SDS011;11067;48.788;9.208;2023-06-04T12:43:42;4.68;;;2.92;;
21810;SDS011;11067;48.788;9.208;2023-06-04T12:46:08;5.23;;;2.57;;
21810;SDS011;11067;48.788;9.208;2023-06-04T12:48:34;5.23;;;3.03;;
21810;SDS011;11067;48.788;9.208;2023-06-04T12:51:00;5.00;;;2.58;;
21810;SDS011;11067;48.788;9.208;2023-06-04T12:53:25;3.73;;;3.00;;
21810;SDS011;11067;48.788;9.208;2023-06-04T12:55:51;4.33;;;2.80;;
21810;SDS011;11067;48.788;9.208;2023-06-04T12:58:16;4.78;;;2.78;;
21810;SDS011;11067;48.788;9.208;2023-06-04T13:00:42;5.53;;;2.90;;
21810;SDS011;11067;48.788;9.208;2023-06-04T13:03:07;4.20;;;2.97;;
21810;SDS011;11067;48.788;9.208;2023-06-04T13:05:35;4.47;;;2.88;;
21810;SDS011;11067;48.788;9.208;2023-06-04T13:08:01;5.35;;;2.85;;
21810;SDS011;11067;48.788;9.208;2023-06-04T13:10:27;3.53;;;2.97;;
21810;SDS011;11067;48.788;9.208;2023-06-04T13:12:52;4.10;;;2.45;;
21810;SDS011;11067;48.788;9.208;2023-06-04T13:15:18;4.80;;;2.67;;
21810;SDS011;11067;48.788;9.208;2023-06-04T13:17:43;5.30;;;2.88;;
21810;SDS011;11067;48.788;9.208;2023-06-04T13:20:09;4.57;;;2.80;;
21810;SDS011;11067;48.788;9.208;2023-06-04T13:22:35;5.70;;;3.20;;
21810;SDS011;11067;48.788;9.208;2023-06-04T13:25:01;5.77;;;2.63;;
21810;SDS011;11067;48.788;9.208;2023-06-04T13:27:26;5.80;;;2.80;;
21810;SDS011;11067;48.788;9.208;2023-06-04T13:29:52;5.20;;;2.90;;
21810;SDS011;11067;48.788;9.208;2023-06-04T13:32:17;4.20;;;3.07;;
21810;SDS011;11067;48.788;9.208;2023-06-04T13:34:43;6.45;;;3.30;;
21810;SDS011;11067;48.788;9.208;2023-06-04T13:37:08;5.87;;;3.00;;
21810;SDS011;11067;48.788;9.208;2023-06-04T13:39:37;4.13;;;2.92;;
21810;SDS011;11067;48.788;9.208;2023-06-04T13:42:03;3.37;;;2.47;;
21810;SDS011;11067;48.788;9.208;2023-06-04T13:44:29;5.40;;;2.63;;
21810;SDS011;11067;48.788;9.208;2023-06-04T13:46:57;3.57;;;2.50;;
21810;SDS011;11067;48.788;9.208;2023-06-04T13:49:23;5.68;;;2.80;;
21810;SDS011;11067;48.788;9.208;2023-06-04T13:51:50;3.77;;;2.80;;
21810;SDS011;11067;48.788;9.208;2023-06-04T13:54:15;8.00;;;2.80;;
21810;SDS011;11067;48.788;9.208;2023-06-04T13:56:41;5.13;;;2.80;;
21810;SDS011;11067;48.788;9.208;2023-06-04T13:59:06;4.03;;;2.70;;
21810;SDS011;11067;48.788;9.208;2023-06-04T14:01:32;3.10;;;2.50;;
21810;SDS011;11067;48.788;9.208;2023-06-04T14:03:57;4.53;;;2.90;;
21810;SDS011;11067;48.788;9.208;2023-06-04T14:06:26;3.63;;;2.90;;
21810;SDS011;11067;48.788;9.208;2023-06-04T14:08:51;5.90;;;2.90;;
21810;SDS011;11067;48.788;9.208;2023-06-04T14:11:17;4.75;;;2.72;;
21810;SDS011;11067;48.788;9.208;2023-06-04T14:13:42;2.93;;;2.30;;
21810;SDS011;11067;48.788;9.208;2023-06-04T14:16:10;6.07;;;2.60;;
21810;SDS011;11067;48.788;9.208;2023-06-04T14:18:35;3.55;;;2.38;;
21810;SDS011;11067;48.788;9.208;2023-06-04T14:21:01;4.93;;;2.40;;
21810;SDS011;11067;48.788;9.208;2023-06-04T14:23:26;4.23;;;2.53;;
21810;SDS011;11067;48.788;9.208;2023-06-04T14:25:52;5.85;;;2.88;;
21810;SDS011;11067;48.788;9.208;2023-06-04T14:28:17;4.00;;;2.63;;
21810;SDS011;11067;48.788;9.208;2023-06-04T14:30:45;4.28;;;2.83;;
21810;SDS011;11067;48.788;9.208;2023-06-04T14:33:11;3.13;;;2.60;;
21810;SDS011;11067;48.788;9.208;2023-06-04T14:35:36;4.93;;;2.63;;
21810;SDS011;11067;48.788;9.208;2023-06-04T14:38:03;4.95;;;2.78;;
21810;SDS011;11067;48.788;9.208;2023-06-04T14:40:29;7.82;;;3.50;;
21810;SDS011;11067;48.788;9.208;2023-06-04T14:42:54;5.13;;;2.70;;
21810;SDS011;11067;48.788;9.208;2023-06-04T14:45:20;4.57;;;3.03;;
21810;SDS011;11067;48.788;9.208;2023-06-04T14:47:46;4.95;;;3.00;;
21810;SDS011;11067;48.788;9.208;2023-06-04T14:50:12;5.50;;;3.03;;
21810;SDS011;11067;48.788;9.208;2023-06-04T14:52:37;3.87;;;2.97;;
21810;SDS011;11067;48.788;9.208;2023-06-04T14:55:03;6.05;;;2.85;;
21810;SDS011;11067;48.788;9.208;2023-06-04T14:57:29;4.65;;;3.00;;
21810;SDS011;11067;48.788;9.208;2023-06-04T14:59:54;5.18;;;2.90;;